createdAt,value
2023-02-25T00:02:03.823Z,77.33
2023-02-25T00:07:06.053Z,77.53
2023-02-25T00:12:07.640Z,77.34
2023-02-25T00:17:09.263Z,77.53
2023-02-25T00:22:10.916Z,77.55
2023-02-25T00:27:12.473Z,77.48
2023-02-25T00:32:14.154Z,77.91
2023-02-25T00:37:17.004Z,78.20
2023-02-25T00:42:19.006Z,78.69
2023-02-25T00:47:20.655Z,78.39
2023-02-25T00:52:22.148Z,78.42
2023-02-25T00:57:24.546Z,78.52
2023-02-25T01:02:28.448Z,78.08
2023-02-25T01:07:30.035Z,78.15
2023-02-25T01:12:31.581Z,78.06
2023-02-25T01:17:33.175Z,78.09
2023-02-25T01:22:34.702Z,77.86
2023-02-25T01:27:36.174Z,77.38
2023-02-25T01:32:38.338Z,77.72
2023-02-25T01:37:39.959Z,77.96
2023-02-25T01:42:41.446Z,78.08
2023-02-25T01:47:49.246Z,77.89
2023-02-25T01:52:52.095Z,78.10
2023-02-25T01:57:53.813Z,78.43
2023-02-25T02:02:56.826Z,78.64
2023-02-25T02:07:58.443Z,78.75
2023-02-25T02:13:00.676Z,78.91
2023-02-25T02:18:04.560Z,78.80
2023-02-25T02:23:39.282Z,78.97
2023-02-25T02:29:02.669Z,79.31
2023-02-25T02:34:16.855Z,78.68
2023-02-25T02:39:49.349Z,78.83
2023-02-25T02:44:58.946Z,79.40
2023-02-25T02:50:12.947Z,79.36
2023-02-25T02:55:25.369Z,78.76
2023-02-25T03:00:34.401Z,79.40
2023-02-25T03:05:38.171Z,79.48
2023-02-25T03:10:40.252Z,79.35
2023-02-25T03:15:42.981Z,79.07
2023-02-25T03:20:49.595Z,78.82
2023-02-25T03:26:02.833Z,79.08
2023-02-25T03:31:42.706Z,79.61
2023-02-25T03:36:50.917Z,79.40
2023-02-25T03:41:55.378Z,79.01
2023-02-25T03:46:58.690Z,78.94
2023-02-25T03:52:04.828Z,79.78
2023-02-25T03:57:06.656Z,79.42
2023-02-25T04:02:08.992Z,79.75
2023-02-25T04:07:10.557Z,79.63
2023-02-25T04:12:12.085Z,79.51
2023-02-25T04:17:13.596Z,80.03
2023-02-25T04:22:15.254Z,79.89
2023-02-25T04:27:16.876Z,79.73
2023-02-25T04:32:18.517Z,79.37
2023-02-25T04:37:20.254Z,79.80
2023-02-25T04:42:21.745Z,79.65
2023-02-25T04:47:23.316Z,79.26
2023-02-25T04:52:25.242Z,79.04
2023-02-25T04:57:27.018Z,78.87
2023-02-25T05:02:28.594Z,79.10
2023-02-25T05:07:30.085Z,78.97
2023-02-25T05:12:32.160Z,78.78
2023-02-25T05:17:34.434Z,78.62
2023-02-25T05:22:35.919Z,78.52
2023-02-25T05:27:37.709Z,79.15
2023-02-25T05:32:39.473Z,79.17
2023-02-25T05:37:41.057Z,78.72
2023-02-25T05:42:42.858Z,78.78
2023-02-25T05:47:44.898Z,78.60
2023-02-25T05:52:47.016Z,78.56
2023-02-25T05:57:48.788Z,78.94
2023-02-25T06:02:50.358Z,79.03
2023-02-25T06:07:51.903Z,78.98
2023-02-25T06:12:53.728Z,78.68
2023-02-25T06:17:55.725Z,78.58
2023-02-25T06:22:57.221Z,79.18
2023-02-25T06:28:00.568Z,79.10
2023-02-25T06:33:02.119Z,79.03
2023-02-25T06:38:03.647Z,78.76
2023-02-25T06:43:05.172Z,78.66
2023-02-25T06:48:07.009Z,78.99
2023-02-25T06:53:09.602Z,78.89
2023-02-25T06:58:11.142Z,78.63
2023-02-25T07:03:14.067Z,78.30
2023-02-25T07:08:15.602Z,78.24
2023-02-25T07:13:17.706Z,78.83
2023-02-25T07:18:20.690Z,78.53
2023-02-25T07:23:22.218Z,78.37
2023-02-25T07:28:24.634Z,78.31
2023-02-25T07:33:26.279Z,77.97
2023-02-25T07:38:27.790Z,78.39
2023-02-25T07:43:30.545Z,78.42
2023-02-25T07:48:32.782Z,78.25
2023-02-25T07:53:35.009Z,78.53
2023-02-25T07:58:38.387Z,78.77
2023-02-25T08:03:41.332Z,78.52
2023-02-25T08:08:42.834Z,78.38
2023-02-25T08:13:44.455Z,78.66
2023-02-25T08:18:47.056Z,78.60
2023-02-25T08:23:48.787Z,78.68
2023-02-25T08:28:51.656Z,78.55
2023-02-25T08:33:54.029Z,78.38
2023-02-25T08:38:57.612Z,78.11
2023-02-25T08:44:00.654Z,78.65
2023-02-25T08:49:02.329Z,78.47
2023-02-25T08:54:08.138Z,78.71
2023-02-25T08:59:14.724Z,78.22
2023-02-25T09:04:19.419Z,77.76
2023-02-25T09:09:22.344Z,77.53
2023-02-25T09:14:25.369Z,76.20
2023-02-25T09:19:26.959Z,75.92
2023-02-25T09:24:30.028Z,74.83
2023-02-25T09:29:33.018Z,75.19
2023-02-25T09:34:34.667Z,75.32
2023-02-25T09:39:36.139Z,75.87
2023-02-25T09:44:48.136Z,75.75
2023-02-25T09:50:00.108Z,74.64
2023-02-25T09:55:09.623Z,73.70
2023-02-25T10:00:24.301Z,73.44
2023-02-25T10:05:44.317Z,72.23
2023-02-25T10:10:54.885Z,73.03
2023-02-25T10:16:14.803Z,72.74
2023-02-25T10:21:35.791Z,72.60
2023-02-25T10:26:45.380Z,72.35
2023-02-25T10:31:47.466Z,73.38
2023-02-25T10:37:00.200Z,73.55
2023-02-25T10:42:01.921Z,73.27
2023-02-25T10:47:06.504Z,73.05
2023-02-25T10:52:15.200Z,72.79
2023-02-25T10:57:26.945Z,72.76
2023-02-25T11:02:31.627Z,73.20
2023-02-25T11:07:35.518Z,73.29
2023-02-25T11:12:42.754Z,73.40
2023-02-25T11:17:45.917Z,73.91
2023-02-25T11:22:55.549Z,73.27
2023-02-25T11:27:58.618Z,73.52
2023-02-25T11:33:04.762Z,73.00
2023-02-25T11:38:28.182Z,73.03
2023-02-25T11:43:39.657Z,74.01
2023-02-25T11:48:49.187Z,74.50
2023-02-25T11:54:41.668Z,74.63
2023-02-25T11:59:58.261Z,74.65
2023-02-25T12:05:05.965Z,75.07
2023-02-25T12:10:13.309Z,74.94
2023-02-25T12:15:45.844Z,75.04
2023-02-25T12:21:06.029Z,75.25
2023-02-25T12:26:39.044Z,74.75
2023-02-25T12:32:20.147Z,74.98
2023-02-25T12:37:40.903Z,74.18
2023-02-25T12:43:05.184Z,73.44
2023-02-25T12:48:26.816Z,73.40
2023-02-25T12:53:40.995Z,72.99
2023-02-25T12:59:21.835Z,72.65
2023-02-25T13:04:48.116Z,73.15
2023-02-25T13:10:08.573Z,72.39
2023-02-25T13:15:30.604Z,73.09
2023-02-25T13:21:07.291Z,72.56
2023-02-25T13:26:11.831Z,72.58
2023-02-25T13:31:52.531Z,72.18
2023-02-25T13:37:19.236Z,71.99
2023-02-25T13:42:29.957Z,72.13
2023-02-25T13:48:11.400Z,71.82
2023-02-25T13:53:35.816Z,71.78
2023-02-25T13:58:37.384Z,71.93
2023-02-25T14:03:57.727Z,71.81
2023-02-25T14:09:14.046Z,71.95
2023-02-25T14:14:43.293Z,71.52
2023-02-25T14:19:47.790Z,73.05
2023-02-25T14:25:20.436Z,73.44
2023-02-25T14:30:27.798Z,74.70
2023-02-25T14:35:29.424Z,75.04
2023-02-25T14:40:52.169Z,74.81
2023-02-25T14:46:02.799Z,74.52
2023-02-25T14:51:10.522Z,74.85
2023-02-25T14:56:30.950Z,75.07
2023-02-25T15:02:02.147Z,74.99
2023-02-25T15:07:34.613Z,74.88
2023-02-25T15:12:57.158Z,74.67
2023-02-25T15:18:20.523Z,75.27
2023-02-25T15:23:40.825Z,75.22
2023-02-25T15:28:45.298Z,75.87
2023-02-25T15:33:48.285Z,76.13
2023-02-25T15:38:56.756Z,75.80
2023-02-25T15:44:21.627Z,76.34
2023-02-25T15:49:37.747Z,76.24
2023-02-25T15:54:39.683Z,76.53
2023-02-25T15:59:43.987Z,76.65
2023-02-25T16:04:50.151Z,75.95
2023-02-25T16:09:59.497Z,76.68
2023-02-25T16:15:02.881Z,76.67
2023-02-25T16:20:18.369Z,77.17
2023-02-25T16:25:32.754Z,77.55
2023-02-25T16:30:49.872Z,76.99
2023-02-25T16:36:25.809Z,76.83
2023-02-25T16:41:37.657Z,77.14
2023-02-25T16:46:41.682Z,76.94
2023-02-25T16:51:45.698Z,77.24
2023-02-25T16:56:58.047Z,76.78
2023-02-25T17:02:02.494Z,76.99
2023-02-25T17:07:14.333Z,77.47
2023-02-25T17:12:20.611Z,77.63
2023-02-25T17:17:34.642Z,77.72
2023-02-25T17:22:39.164Z,77.76
2023-02-25T17:27:41.040Z,77.77
2023-02-25T17:32:45.180Z,77.65
2023-02-25T17:37:46.596Z,77.67
2023-02-25T17:42:49.020Z,78.26
2023-02-25T17:47:50.609Z,79.04
2023-02-25T17:52:53.009Z,78.88
2023-02-25T17:57:58.872Z,78.43
2023-02-25T18:03:22.288Z,78.93
2023-02-25T18:08:31.106Z,78.31
2023-02-25T18:13:37.953Z,79.34
2023-02-25T18:18:41.418Z,79.98
2023-02-25T18:23:44.034Z,80.80
2023-02-25T18:28:46.100Z,80.08
2023-02-25T18:33:48.520Z,79.70
2023-02-25T18:38:50.779Z,79.07
2023-02-25T18:43:54.800Z,78.68
2023-02-25T18:48:58.132Z,79.60
2023-02-25T18:53:59.700Z,80.22
2023-02-25T18:59:01.255Z,80.34
2023-02-25T19:04:02.771Z,80.67
2023-02-25T19:09:04.334Z,80.73
2023-02-25T19:14:07.948Z,80.31
2023-02-25T19:19:09.444Z,80.73
2023-02-25T19:24:12.161Z,80.49
2023-02-25T19:29:13.949Z,80.82
2023-02-25T19:34:16.109Z,80.36
2023-02-25T19:39:18.262Z,79.82
2023-02-25T19:44:20.425Z,79.20
2023-02-25T19:49:21.964Z,78.76
2023-02-25T19:54:25.966Z,78.73
2023-02-25T19:59:30.601Z,79.39
2023-02-25T20:04:33.333Z,79.25
2023-02-25T20:09:38.320Z,80.21
2023-02-25T20:14:40.097Z,80.46
2023-02-25T20:19:41.724Z,80.36
2023-02-25T20:24:43.578Z,80.57
2023-02-25T20:29:45.153Z,81.21
2023-02-25T20:34:47.884Z,80.62
2023-02-25T20:39:55.011Z,81.43
2023-02-25T20:44:58.684Z,81.46
2023-02-25T20:50:00.435Z,81.12
2023-02-25T20:55:01.962Z,80.90
2023-02-25T21:00:09.176Z,80.90
2023-02-25T21:05:10.834Z,80.87
2023-02-25T21:10:12.525Z,81.27
2023-02-25T21:15:14.125Z,81.16
2023-02-25T21:20:15.903Z,80.94
2023-02-25T21:25:17.445Z,81.05
2023-02-25T21:30:19.101Z,80.96
2023-02-25T21:35:25.077Z,80.64
2023-02-25T21:40:27.184Z,80.56
2023-02-25T21:45:29.073Z,80.37
2023-02-25T21:50:31.306Z,80.42
2023-02-25T21:55:32.867Z,80.62
2023-02-25T22:00:34.650Z,79.94
2023-02-25T22:05:37.874Z,79.57
2023-02-25T22:10:40.863Z,79.75
2023-02-25T22:15:47.592Z,80.24
2023-02-25T22:20:49.504Z,80.10
2023-02-25T22:25:51.086Z,79.83
2023-02-25T22:30:52.708Z,79.96
2023-02-25T22:35:59.934Z,79.07
2023-02-25T22:41:01.479Z,78.77
2023-02-25T22:46:15.115Z,78.47
2023-02-25T22:51:24.375Z,79.04
2023-02-25T22:56:26.500Z,79.39
2023-02-25T23:01:28.561Z,79.31
2023-02-25T23:06:43.058Z,79.42
2023-02-25T23:11:45.401Z,78.62
2023-02-25T23:16:47.144Z,77.89
2023-02-25T23:21:49.361Z,77.80
2023-02-25T23:26:53.609Z,78.32
2023-02-25T23:31:55.186Z,78.57
2023-02-25T23:36:57.839Z,78.55
2023-02-25T23:41:59.549Z,79.10
2023-02-25T23:47:01.202Z,79.31
2023-02-25T23:52:02.923Z,79.17
2023-02-25T23:57:04.534Z,78.59
